Time;durP1;ratioP1;P1;durP2;ratioP2;P2;SDS_P1;SDS_P2;PMS_P1;PMS_P2;Temp;Humidity;BMP_temperature;BMP_pressure;BME280_temperature;BME280_humidity;BME280_pressure;Samples;Min_cycle;Max_cycle;Signal;HPM_P1;HPM_P2
2021/07/15 00:01:16;;;;;;;12.23;10.60;;;23.50;70.90;;;;;;4911090;28;92302;-23
2021/07/15 00:03:42;;;;;;;11.40;10.20;;;23.40;70.80;;;;;;4911037;28;92714;-20
2021/07/15 00:06:09;;;;;;;12.80;9.85;;;23.50;70.90;;;;;;4911660;28;92261;-16
2021/07/15 00:08:34;;;;;;;11.57;10.02;;;23.50;70.90;;;;;;4911763;28;92937;-32
2021/07/15 00:11:07;;;;;;;10.60;9.50;;;23.50;70.80;;;;;;4911161;28;93939;-22
2021/07/15 00:13:32;;;;;;;11.30;10.07;;;23.50;70.80;;;;;;4912088;28;92679;-16
2021/07/15 00:16:01;;;;;;;11.38;9.90;;;23.50;70.80;;;;;;4910491;28;93178;-35
2021/07/15 00:18:30;;;;;;;12.10;10.45;;;23.40;71.30;;;;;;4910525;28;92951;-16
2021/07/15 00:20:58;;;;;;;12.70;10.10;;;23.50;70.80;;;;;;4910756;28;93113;-25
2021/07/15 00:23:24;;;;;;;12.02;10.10;;;23.50;70.80;;;;;;4910186;28;92944;-43
2021/07/15 00:25:50;;;;;;;12.25;10.35;;;23.40;70.70;;;;;;4910811;28;92992;-15
2021/07/15 00:28:17;;;;;;;12.32;9.82;;;23.40;70.70;;;;;;4910880;28;92992;-17
2021/07/15 00:30:43;;;;;;;11.35;10.15;;;23.40;70.70;;;;;;4911996;28;93216;-29
2021/07/15 00:33:09;;;;;;;11.88;9.75;;;23.40;70.80;;;;;;4911531;28;93340;-16
2021/07/15 00:35:37;;;;;;;11.88;10.57;;;23.40;70.70;;;;;;4910778;28;93155;-16
2021/07/15 00:38:04;;;;;;;10.98;9.63;;;23.40;70.70;;;;;;4910328;28;94006;-22
2021/07/15 00:40:30;;;;;;;14.40;10.25;;;23.40;70.70;;;;;;4911897;28;92601;-18
2021/07/15 00:42:56;;;;;;;12.35;11.02;;;23.40;70.80;;;;;;4910428;28;92540;-30
2021/07/15 00:45:22;;;;;;;11.02;9.77;;;23.40;70.70;;;;;;4910358;28;93241;-26
2021/07/15 00:47:48;;;;;;;10.48;9.38;;;23.40;70.80;;;;;;4909416;28;95079;-16
2021/07/15 00:50:16;;;;;;;12.32;10.18;;;23.40;70.70;;;;;;4911352;28;92196;-16
2021/07/15 00:52:42;;;;;;;11.40;10.20;;;23.40;70.70;;;;;;4911228;28;92541;-43
2021/07/15 00:55:12;;;;;;;11.30;9.93;;;23.40;70.70;;;;;;4910894;28;93204;-17
2021/07/15 00:57:38;;;;;;;11.48;10.20;;;23.40;70.80;;;;;;4911366;28;95129;-16
2021/07/15 01:00:06;;;;;;;11.15;9.93;;;23.40;70.80;;;;;;4909878;28;93858;-30
2021/07/15 01:02:33;;;;;;;11.98;10.68;;;23.40;70.80;;;;;;4910510;28;93183;-22
2021/07/15 01:04:58;;;;;;;12.32;10.00;;;23.40;70.70;;;;;;4909598;28;93221;-32
2021/07/15 01:07:24;;;;;;;11.13;9.93;;;23.40;70.70;;;;;;4909090;28;92640;-16
2021/07/15 01:09:49;;;;;;;11.25;10.05;;;23.40;70.70;;;;;;4910614;28;93301;-39
2021/07/15 01:12:25;;;;;;;11.07;9.75;;;23.40;70.70;;;;;;4910498;28;93159;-24
2021/07/15 01:14:57;;;;;;;12.05;9.85;;;23.40;70.80;;;;;;4910286;28;94697;-18
2021/07/15 01:17:27;;;;;;;11.27;9.40;;;23.40;70.80;;;;;;4911152;28;92854;-16
2021/07/15 01:20:27;;;;;;;10.43;9.30;;;23.40;70.80;;;;;;4910971;28;93216;-19
2021/07/15 01:23:01;;;;;;;11.38;10.20;;;23.40;70.70;;;;;;4911217;28;92827;-32
2021/07/15 01:25:46;;;;;;;11.52;9.73;;;23.40;70.90;;;;;;4909340;28;94360;-17
2021/07/15 01:28:24;;;;;;;10.85;9.75;;;23.30;70.60;;;;;;4910615;28;93861;-27
2021/07/15 01:30:55;;;;;;;12.13;10.00;;;23.40;70.70;;;;;;4910738;28;93130;-17
2021/07/15 01:33:26;;;;;;;12.10;10.02;;;23.30;70.70;;;;;;4909848;28;93352;-22
2021/07/15 01:36:13;;;;;;;10.55;9.55;;;23.30;70.70;;;;;;4909871;28;94006;-25
2021/07/15 01:38:43;;;;;;;10.68;9.00;;;23.40;70.80;;;;;;4910646;28;92887;-17
2021/07/15 01:41:23;;;;;;;10.13;9.10;;;23.30;70.70;;;;;;4910843;28;92657;-30
2021/07/15 01:44:04;;;;;;;10.65;9.25;;;23.30;70.70;;;;;;4910862;28;92329;-20
2021/07/15 01:46:31;;;;;;;10.68;9.57;;;23.30;70.70;;;;;;4910376;28;92829;-15
2021/07/15 01:48:59;;;;;;;12.40;10.52;;;23.40;70.70;;;;;;4910540;28;92852;-41
2021/07/15 01:51:25;;;;;;;11.40;9.50;;;23.30;70.70;;;;;;4909475;28;93910;-38
2021/07/15 01:53:52;;;;;;;12.05;9.90;;;23.30;70.70;;;;;;4910319;28;92887;-22
2021/07/15 01:56:18;;;;;;;10.63;9.23;;;23.30;70.70;;;;;;4909346;28;94612;-17
2021/07/15 01:58:46;;;;;;;10.50;9.23;;;23.30;70.70;;;;;;4909930;28;93601;-36
2021/07/15 02:01:13;;;;;;;9.95;8.85;;;23.30;70.70;;;;;;4910419;28;92644;-22
2021/07/15 02:03:46;;;;;;;11.02;9.82;;;23.30;70.70;;;;;;4910110;28;92900;-29
2021/07/15 02:06:14;;;;;;;11.33;10.13;;;23.30;70.70;;;;;;4909452;28;92961;-19
2021/07/15 02:08:41;;;;;;;11.38;9.80;;;23.30;70.70;;;;;;4909390;28;92930;-20
2021/07/15 02:11:09;;;;;;;11.02;9.60;;;23.30;70.70;;;;;;4910374;28;92091;-17
2021/07/15 02:13:35;;;;;;;10.57;9.48;;;23.30;70.70;;;;;;4909166;28;92880;-23
2021/07/15 02:16:02;;;;;;;10.60;9.13;;;23.30;70.70;;;;;;4908688;28;94178;-37
2021/07/15 02:18:29;;;;;;;10.80;9.63;;;23.30;70.70;;;;;;4907961;28;95298;-30
2021/07/15 02:20:55;;;;;;;11.18;9.82;;;23.30;70.70;;;;;;4909763;28;92719;-44
2021/07/15 02:23:22;;;;;;;10.32;9.25;;;23.30;70.70;;;;;;4907964;28;93326;-21
2021/07/15 02:25:54;;;;;;;10.95;9.85;;;23.30;70.70;;;;;;4908881;28;92786;-17
2021/07/15 02:28:21;;;;;;;11.35;9.13;;;23.30;70.70;;;;;;4908689;28;93094;-20
2021/07/15 02:30:51;;;;;;;10.15;9.02;;;23.30;70.70;;;;;;4910232;28;92975;-19
2021/07/15 02:33:22;;;;;;;10.65;9.38;;;23.30;70.70;;;;;;4910410;28;91665;-23
2021/07/15 02:35:50;;;;;;;10.13;9.02;;;23.30;70.70;;;;;;4909588;28;93221;-16
2021/07/15 02:38:24;;;;;;;10.50;8.95;;;23.30;70.70;;;;;;4923435;28;95703;-24
2021/07/15 02:40:51;;;;;;;10.40;9.20;;;23.30;70.70;;;;;;4911436;28;94209;-37
2021/07/15 02:43:18;;;;;;;9.23;8.32;;;23.30;70.70;;;;;;4913364;28;92759;-19
2021/07/15 02:45:43;;;;;;;10.68;9.57;;;23.30;70.70;;;;;;4912537;28;94120;-29
2021/07/15 02:48:12;;;;;;;10.52;9.40;;;23.30;70.70;;;;;;4912379;28;93184;-21
2021/07/15 02:50:37;;;;;;;10.82;9.02;;;23.30;70.70;;;;;;4913528;28;92109;-22
2021/07/15 02:53:03;;;;;;;10.32;9.32;;;23.30;70.60;;;;;;4912970;28;93029;-19
2021/07/15 02:55:29;;;;;;;11.23;9.05;;;23.30;70.60;;;;;;4912701;28;93377;-44
2021/07/15 02:58:12;;;;;;;9.80;8.70;;;23.30;70.60;;;;;;4912753;28;92943;-28
2021/07/15 03:00:47;;;;;;;10.43;9.03;;;23.30;70.60;;;;;;4912981;28;92595;-40
2021/07/15 03:03:15;;;;;;;10.20;8.82;;;23.30;70.60;;;;;;4912773;28;92981;-17
2021/07/15 03:05:54;;;;;;;9.90;8.90;;;23.30;70.60;;;;;;4911412;28;94769;-21
2021/07/15 03:08:28;;;;;;;9.93;8.90;;;23.30;70.60;;;;;;4911948;28;93359;-21
2021/07/15 03:10:55;;;;;;;10.27;9.25;;;23.30;70.60;;;;;;4912741;28;93231;-37
2021/07/15 03:13:22;;;;;;;9.73;8.55;;;23.20;70.60;;;;;;4912308;28;93186;-22
2021/07/15 03:15:48;;;;;;;9.23;8.32;;;23.20;70.50;;;;;;4912382;28;93154;-22
2021/07/15 03:18:18;;;;;;;9.40;8.38;;;23.30;70.60;;;;;;4912741;28;92514;-17
2021/07/15 03:20:44;;;;;;;10.40;9.00;;;23.30;70.60;;;;;;4912943;28;93149;-42
2021/07/15 03:23:14;;;;;;;9.63;8.63;;;23.30;70.60;;;;;;4913068;28;92006;-16
2021/07/15 03:25:46;;;;;;;9.55;8.55;;;23.30;70.60;;;;;;4911794;28;93564;-24
2021/07/15 03:28:14;;;;;;;9.40;8.43;;;23.30;70.60;;;;;;4910479;28;94132;-37
2021/07/15 03:30:39;;;;;;;10.23;8.57;;;23.30;70.60;;;;;;4910335;28;93391;-21
2021/07/15 03:33:06;;;;;;;8.70;7.80;;;23.20;70.50;;;;;;4912104;28;92657;-16
2021/07/15 03:35:33;;;;;;;9.52;8.55;;;23.20;70.60;;;;;;4912319;28;93062;-18
2021/07/15 03:38:01;;;;;;;10.35;8.80;;;23.20;70.60;;;;;;4911945;28;92904;-19
2021/07/15 03:40:28;;;;;;;10.05;8.50;;;23.20;70.60;;;;;;4910321;28;92898;-17
2021/07/15 03:42:55;;;;;;;9.40;8.40;;;23.20;70.60;;;;;;4911249;28;93352;-16
2021/07/15 03:45:23;;;;;;;9.52;8.45;;;23.20;70.60;;;;;;4911864;28;93542;-21
2021/07/15 03:47:52;;;;;;;9.23;8.27;;;23.10;70.50;;;;;;4912433;28;92801;-36
2021/07/15 03:50:36;;;;;;;10.10;8.82;;;23.20;70.50;;;;;;4912732;28;92200;-16
2021/07/15 03:53:05;;;;;;;9.10;8.20;;;23.20;70.50;;;;;;4925498;28;93664;-19
2021/07/15 03:55:35;;;;;;;9.10;8.18;;;23.20;70.60;;;;;;4910709;28;94189;-33
2021/07/15 03:58:12;;;;;;;8.82;7.95;;;23.20;70.60;;;;;;4911479;28;94041;-19
2021/07/15 04:00:41;;;;;;;10.07;8.85;;;23.20;70.60;;;;;;4911754;28;93405;-45
2021/07/15 04:03:10;;;;;;;9.60;8.50;;;23.20;70.60;;;;;;4911379;28;93243;-43
2021/07/15 04:05:38;;;;;;;9.00;8.10;;;23.20;70.60;;;;;;4909550;28;96114;-27
2021/07/15 04:08:05;;;;;;;8.98;8.00;;;23.20;70.60;;;;;;4910281;28;96101;-16
2021/07/15 04:10:33;;;;;;;8.88;7.97;;;23.20;70.50;;;;;;4911579;28;92171;-33
2021/07/15 04:12:59;;;;;;;9.27;8.27;;;23.20;70.50;;;;;;4911594;28;91428;-18
2021/07/15 04:16:19;;;;;;;9.82;8.27;;;23.20;70.60;;;;;;4911699;28;92973;-20
2021/07/15 04:18:46;;;;;;;9.60;8.40;;;23.20;70.80;;;;;;4873422;28;92893;-37
2021/07/15 04:21:13;;;;;;;9.35;8.43;;;23.20;70.50;;;;;;4911315;28;94345;-45
2021/07/15 04:23:40;;;;;;;9.55;8.55;;;23.10;70.50;;;;;;4911214;28;93235;-20
2021/07/15 04:26:07;;;;;;;10.48;8.10;;;23.20;70.60;;;;;;4910259;28;92884;-26
2021/07/15 04:28:34;;;;;;;9.30;8.40;;;23.20;70.60;;;;;;4940468;22;93047;-16
2021/07/15 04:31:14;;;;;;;9.60;8.60;;;23.20;70.60;;;;;;4891667;28;93088;-16
2021/07/15 04:33:41;;;;;;;8.63;7.72;;;23.20;70.50;;;;;;4890489;28;92270;-16
2021/07/15 04:36:08;;;;;;;8.23;7.43;;;23.10;70.50;;;;;;4890617;28;93698;-12
2021/07/15 04:38:34;;;;;;;8.95;7.90;;;23.20;70.60;;;;;;4891176;28;92893;-12
2021/07/15 04:41:00;;;;;;;9.35;8.35;;;23.10;70.50;;;;;;4891304;28;92531;-17
2021/07/15 04:43:29;;;;;;;8.40;7.28;;;23.20;70.50;;;;;;4891996;28;92952;-10
2021/07/15 04:45:55;;;;;;;8.80;7.95;;;23.20;70.50;;;;;;4890695;28;94162;-11
2021/07/15 04:48:21;;;;;;;8.88;8.07;;;23.20;70.50;;;;;;4890785;28;93865;-12
2021/07/15 04:50:48;;;;;;;9.15;8.20;;;23.20;70.50;;;;;;4891154;28;92511;-13
2021/07/15 04:53:21;;;;;;;8.52;7.72;;;23.20;70.50;;;;;;4890949;28;93021;-12
2021/07/15 04:55:48;;;;;;;9.10;8.20;;;23.20;70.50;;;;;;4889542;28;96430;-11
2021/07/15 04:58:15;;;;;;;8.52;7.60;;;23.10;70.40;;;;;;4890932;28;93421;-12
2021/07/15 05:00:41;;;;;;;9.77;8.77;;;23.10;70.50;;;;;;4891232;28;93430;-12
2021/07/15 05:03:16;;;;;;;7.78;6.97;;;23.20;70.50;;;;;;4890647;28;91459;-12
2021/07/15 05:05:41;;;;;;;9.27;8.27;;;23.20;70.50;;;;;;4891335;28;93224;-12
2021/07/15 05:08:07;;;;;;;8.85;7.95;;;23.20;70.50;;;;;;4891179;28;93259;-12
2021/07/15 05:10:33;;;;;;;8.73;7.82;;;23.20;70.60;;;;;;4891162;28;94031;-15
2021/07/15 05:13:00;;;;;;;8.57;7.50;;;23.10;70.50;;;;;;4890860;28;92255;-10
2021/07/15 05:15:26;;;;;;;9.48;8.48;;;23.20;70.50;;;;;;4890866;28;93769;-15
2021/07/15 05:17:51;;;;;;;8.70;7.50;;;23.20;70.50;;;;;;4890502;28;93340;-13
2021/07/15 05:20:17;;;;;;;9.35;8.45;;;23.20;70.50;;;;;;4890824;28;93199;-17
2021/07/15 05:22:43;;;;;;;8.77;7.35;;;23.20;70.50;;;;;;4891866;28;92667;-11
2021/07/15 05:25:09;;;;;;;8.23;7.40;;;23.10;70.40;;;;;;4890910;28;93007;-12
2021/07/15 05:27:35;;;;;;;7.45;6.75;;;23.10;70.40;;;;;;4897155;28;93017;-19
2021/07/15 05:30:01;;;;;;;8.18;7.38;;;23.20;70.50;;;;;;4910341;28;92266;-12
2021/07/15 05:32:27;;;;;;;8.75;7.57;;;23.20;70.50;;;;;;4909735;28;92720;-14
2021/07/15 05:34:53;;;;;;;8.52;7.63;;;23.20;70.50;;;;;;4908994;28;95281;-12
2021/07/15 05:37:19;;;;;;;7.80;7.00;;;23.20;70.50;;;;;;4909318;28;94519;-12
2021/07/15 05:39:44;;;;;;;8.05;7.25;;;23.20;70.50;;;;;;4907493;28;92312;-12
2021/07/15 05:42:11;;;;;;;8.70;7.80;;;23.10;70.40;;;;;;4890171;28;93129;-13
2021/07/15 05:44:37;;;;;;;8.25;7.25;;;23.10;71.00;;;;;;4890253;28;93284;-12
2021/07/15 05:47:03;;;;;;;9.57;7.25;;;23.10;70.40;;;;;;4888221;28;95686;-15
2021/07/15 05:49:29;;;;;;;7.85;7.05;;;23.10;70.50;;;;;;4890139;28;92677;-16
2021/07/15 05:51:54;;;;;;;12.15;7.30;;;23.20;70.50;;;;;;4890873;28;92482;-15
2021/07/15 05:54:20;;;;;;;10.15;7.15;;;23.10;70.50;;;;;;4890235;28;93197;-13
2021/07/15 05:56:45;;;;;;;14.95;7.75;;;23.10;70.40;;;;;;4890751;28;93080;-18
2021/07/15 05:59:11;;;;;;;15.43;7.53;;;23.10;70.50;;;;;;4890645;28;93135;-10
2021/07/15 06:01:36;;;;;;;11.77;7.45;;;23.20;70.50;;;;;;4890146;28;92161;-12
2021/07/15 06:04:02;;;;;;;13.20;7.75;;;23.20;70.90;;;;;;4890357;28;93229;-17
2021/07/15 06:06:28;;;;;;;17.92;8.32;;;23.20;71.00;;;;;;4889247;28;93502;-16
2021/07/15 06:08:54;;;;;;;33.45;11.00;;;23.30;71.30;;;;;;4889728;28;92964;-14
2021/07/15 06:11:20;;;;;;;36.28;11.90;;;23.30;71.20;;;;;;4889318;28;93188;-18
2021/07/15 06:13:46;;;;;;;35.85;11.68;;;23.30;70.90;;;;;;4889998;28;93666;-13
2021/07/15 06:16:11;;;;;;;27.48;10.30;;;23.40;70.90;;;;;;4890034;28;92292;-12
2021/07/15 06:18:37;;;;;;;29.38;10.23;;;23.40;70.90;;;;;;4890152;28;93269;-13
2021/07/15 06:21:04;;;;;;;61.15;15.70;;;23.30;70.80;;;;;;4886731;28;92900;-12
2021/07/15 06:23:32;;;;;;;35.25;12.45;;;23.30;71.00;;;;;;4890946;28;94243;-18
2021/07/15 06:25:58;;;;;;;33.75;10.43;;;23.30;71.10;;;;;;4888152;28;95694;-12
2021/07/15 06:28:23;;;;;;;36.28;10.10;;;23.30;71.70;;;;;;4900859;28;92952;-13
2021/07/15 06:30:50;;;;;;;37.65;12.88;;;23.30;71.60;;;;;;4890735;28;93351;-14
2021/07/15 06:33:15;;;;;;;40.58;13.25;;;23.30;71.70;;;;;;4888799;28;93302;-17
2021/07/15 06:35:47;;;;;;;38.17;13.10;;;23.30;72.10;;;;;;4897383;28;92821;-16
2021/07/15 06:38:13;;;;;;;35.40;12.57;;;23.40;72.10;;;;;;4897041;28;92695;-15
2021/07/15 06:40:38;;;;;;;47.47;12.57;;;23.40;72.20;;;;;;4896050;28;91855;-18
2021/07/15 06:43:04;;;;;;;44.20;13.27;;;23.40;72.30;;;;;;4894496;28;92833;-15
2021/07/15 06:45:29;;;;;;;39.83;12.55;;;23.40;72.30;;;;;;4889618;28;94621;-18
2021/07/15 06:47:55;;;;;;;45.75;14.60;;;23.40;72.40;;;;;;4897051;28;94210;-18
2021/07/15 06:50:21;;;;;;;46.67;13.63;;;23.40;72.90;;;;;;4887529;28;92673;-13
2021/07/15 06:52:47;;;;;;;42.22;13.23;;;23.50;72.80;;;;;;4899793;28;93287;-17
2021/07/15 06:55:12;;;;;;;40.03;13.85;;;23.50;73.20;;;;;;4908652;28;92772;-13
2021/07/15 06:57:39;;;;;;;41.90;13.60;;;23.40;73.10;;;;;;4907492;28;92841;-13
2021/07/15 07:00:11;;;;;;;38.00;12.77;;;23.40;73.10;;;;;;4887628;28;92801;-11
2021/07/15 07:02:41;;;;;;;44.13;13.68;;;23.40;73.40;;;;;;4886689;28;94759;-16
2021/07/15 07:05:08;;;;;;;35.03;13.52;;;23.40;73.30;;;;;;4902020;28;92925;-13
2021/07/15 07:07:34;;;;;;;39.83;12.95;;;23.40;73.30;;;;;;4896657;28;92949;-17
2021/07/15 07:10:00;;;;;;;38.72;13.65;;;23.40;73.30;;;;;;4907869;28;93332;-14
2021/07/15 07:12:26;;;;;;;33.95;11.10;;;23.50;73.30;;;;;;4907366;28;94063;-10
2021/07/15 07:14:51;;;;;;;37.90;11.45;;;23.50;72.80;;;;;;4908014;28;93866;-14
2021/07/15 07:17:17;;;;;;;25.33;10.68;;;23.50;72.70;;;;;;4907990;28;92186;-11
2021/07/15 07:19:43;;;;;;;34.75;12.00;;;23.60;72.70;;;;;;4908607;28;93218;-15
2021/07/15 07:22:11;;;;;;;34.25;12.15;;;23.60;72.80;;;;;;4908112;28;93072;-13
2021/07/15 07:24:36;;;;;;;29.48;11.77;;;23.60;72.50;;;;;;4907469;28;93557;-12
2021/07/15 07:27:02;;;;;;;33.80;10.88;;;23.70;72.40;;;;;;4909375;28;92211;-14
2021/07/15 07:29:28;;;;;;;27.65;9.93;;;23.60;72.20;;;;;;4909674;28;92459;-13
2021/07/15 07:31:53;;;;;;;30.88;10.63;;;23.60;72.20;;;;;;4911008;28;92807;-10
2021/07/15 07:34:19;;;;;;;28.00;10.85;;;23.60;72.30;;;;;;4909550;28;93826;-11
2021/07/15 07:36:45;;;;;;;33.95;10.63;;;23.60;72.30;;;;;;4911160;28;93134;-15
2021/07/15 07:39:11;;;;;;;29.75;10.85;;;23.60;72.20;;;;;;4912291;28;93111;-11
2021/07/15 07:41:37;;;;;;;22.48;9.63;;;23.50;72.20;;;;;;4911021;28;92755;-11
2021/07/15 07:44:03;;;;;;;26.75;10.50;;;23.50;72.20;;;;;;4912127;28;93478;-13
2021/07/15 07:46:31;;;;;;;33.13;10.73;;;23.50;72.20;;;;;;4911387;28;93091;-12
2021/07/15 07:48:57;;;;;;;31.25;11.70;;;23.50;72.30;;;;;;4911695;28;92846;-10
2021/07/15 07:51:23;;;;;;;25.35;10.50;;;23.50;72.30;;;;;;4911189;28;93033;-16
2021/07/15 07:53:48;;;;;;;26.23;9.77;;;23.50;72.30;;;;;;4911222;28;93014;-12
2021/07/15 07:56:16;;;;;;;30.23;10.48;;;23.40;72.30;;;;;;4912309;28;93179;-12
2021/07/15 07:58:44;;;;;;;20.98;8.60;;;23.40;72.30;;;;;;4911299;28;92973;-12
2021/07/15 08:01:10;;;;;;;26.92;10.23;;;23.40;72.30;;;;;;4911384;28;93523;-11
2021/07/15 08:03:35;;;;;;;25.58;9.80;;;23.40;72.40;;;;;;4911230;28;93982;-12
2021/07/15 08:06:01;;;;;;;30.42;10.65;;;23.40;72.30;;;;;;4911903;28;92173;-12
2021/07/15 08:08:28;;;;;;;25.98;10.07;;;23.40;72.30;;;;;;4911140;28;92998;-11
2021/07/15 08:10:54;;;;;;;23.13;9.68;;;23.30;72.30;;;;;;4910088;28;93185;-11
2021/07/15 08:13:19;;;;;;;24.63;9.88;;;23.30;72.30;;;;;;4895563;28;92903;-12
2021/07/15 08:15:45;;;;;;;21.33;9.23;;;23.30;72.30;;;;;;4891880;28;92556;-11
2021/07/15 08:18:11;;;;;;;24.48;9.98;;;23.30;72.30;;;;;;4893287;28;91918;-15
2021/07/15 08:20:37;;;;;;;25.98;9.70;;;23.30;72.30;;;;;;4891692;28;93338;-13
2021/07/15 08:23:04;;;;;;;25.48;9.15;;;23.30;72.30;;;;;;4891375;28;93142;-13
2021/07/15 08:25:30;;;;;;;21.55;9.05;;;23.30;72.30;;;;;;4891747;28;93770;-12
2021/07/15 08:27:56;;;;;;;23.65;9.25;;;23.30;72.30;;;;;;4891578;28;93082;-12
2021/07/15 08:30:22;;;;;;;21.45;9.23;;;23.30;72.30;;;;;;4890125;28;94876;-12
2021/07/15 08:32:48;;;;;;;25.08;9.82;;;23.30;72.30;;;;;;4891836;28;93076;-17
2021/07/15 08:35:22;;;;;;;22.85;9.10;;;23.30;72.30;;;;;;4891689;28;92542;-15
2021/07/15 08:37:51;;;;;;;23.63;9.70;;;23.20;72.30;;;;;;4890718;28;92309;-15
2021/07/15 08:42:42;;;;;;;21.23;9.15;;;23.20;72.30;;;;;;4890275;28;93452;-15
2021/07/15 08:45:09;;;;;;;22.55;9.07;;;23.20;72.30;;;;;;4891699;28;92872;-13
2021/07/15 08:47:39;;;;;;;25.20;9.57;;;23.20;72.30;;;;;;4891044;28;92876;-10
2021/07/15 08:50:08;;;;;;;21.10;8.75;;;23.10;72.30;;;;;;4890779;28;94624;-13
2021/07/15 08:52:37;;;;;;;22.83;8.88;;;23.10;72.40;;;;;;4892179;28;93248;-10
2021/07/15 08:57:33;;;;;;;23.25;9.65;;;23.10;72.40;;;;;;4890986;28;93182;-11
2021/07/15 08:59:59;;;;;;;20.50;9.00;;;23.10;72.40;;;;;;4889465;28;95074;-12
2021/07/15 09:02:25;;;;;;;27.20;9.00;;;23.20;72.50;;;;;;4891900;28;93027;-13
2021/07/15 09:04:51;;;;;;;20.40;8.38;;;23.20;72.50;;;;;;4926065;28;92576;-11
2021/07/15 09:07:18;;;;;;;20.92;8.98;;;23.10;72.50;;;;;;4911306;28;91481;-12
2021/07/15 09:09:49;;;;;;;18.55;8.23;;;23.10;72.50;;;;;;4910716;28;93567;-10
2021/07/15 09:12:16;;;;;;;19.45;8.27;;;23.00;72.40;;;;;;4911258;28;92452;-11
2021/07/15 09:14:46;;;;;;;19.77;8.73;;;23.10;72.50;;;;;;4911220;28;94351;-12
2021/07/15 09:17:12;;;;;;;19.40;8.85;;;23.10;72.40;;;;;;4909964;28;92698;-11
2021/07/15 09:19:39;;;;;;;18.88;8.35;;;23.10;72.40;;;;;;4909912;28;92834;-11
2021/07/15 09:22:09;;;;;;;16.92;7.60;;;23.10;72.50;;;;;;4908905;28;94047;-13
2021/07/15 09:24:39;;;;;;;15.85;7.63;;;23.10;72.40;;;;;;4910236;28;92853;-11
2021/07/15 09:27:13;;;;;;;14.35;7.68;;;23.10;72.40;;;;;;4911027;28;93660;-12
2021/07/15 09:29:39;;;;;;;16.08;7.45;;;23.10;72.40;;;;;;4910712;28;92757;-13
2021/07/15 09:32:05;;;;;;;19.15;8.27;;;23.10;72.40;;;;;;4910578;28;92216;-13
2021/07/15 09:34:33;;;;;;;19.63;8.32;;;23.10;72.30;;;;;;4911400;28;92947;-12
2021/07/15 09:37:15;;;;;;;18.63;8.05;;;23.10;72.20;;;;;;4910240;28;92542;-11
2021/07/15 09:39:44;;;;;;;18.50;8.63;;;23.10;72.30;;;;;;4907663;28;95188;-13
2021/07/15 09:42:16;;;;;;;19.42;7.82;;;23.10;72.30;;;;;;4909888;28;93920;-14
2021/07/15 09:44:43;;;;;;;15.35;7.72;;;23.10;72.30;;;;;;4910123;28;92874;-19
2021/07/15 09:47:34;;;;;;;15.00;7.93;;;23.10;72.40;;;;;;4925439;28;92293;-16
2021/07/15 09:50:02;;;;;;;20.33;8.30;;;23.10;72.30;;;;;;4908922;28;93255;-14
2021/07/15 09:52:27;;;;;;;16.80;7.40;;;23.10;72.40;;;;;;4909372;28;94433;-11
2021/07/15 09:55:21;;;;;;;14.32;7.25;;;23.10;72.40;;;;;;4908972;28;92753;-12
2021/07/15 09:57:59;;;;;;;;;;;23.10;72.30;;;;;;4910708;28;92198;-17
2021/07/15 10:00:32;;;;;;;13.93;7.30;;;23.10;72.30;;;;;;4911121;28;93142;-18
2021/07/15 10:02:57;;;;;;;15.88;7.47;;;23.10;72.20;;;;;;4910140;28;93107;-9
2021/07/15 10:05:24;;;;;;;14.90;7.07;;;23.10;72.30;;;;;;4909772;28;93603;-14
2021/07/15 10:08:00;;;;;;;17.20;8.30;;;23.00;72.20;;;;;;4911132;28;92662;-13
2021/07/15 10:10:26;;;;;;;16.45;7.88;;;23.10;72.20;;;;;;4909933;28;93046;-10
2021/07/15 10:12:52;;;;;;;18.15;7.35;;;23.10;72.20;;;;;;4910642;28;92982;-14
2021/07/15 10:15:17;;;;;;;13.18;6.88;;;23.10;72.20;;;;;;4910548;28;92537;-15
2021/07/15 10:17:46;;;;;;;15.27;7.65;;;23.10;72.20;;;;;;4910143;28;93412;-16
2021/07/15 10:20:13;;;;;;;14.13;7.28;;;23.10;72.20;;;;;;4909963;28;92923;-16
2021/07/15 10:22:40;;;;;;;15.13;6.70;;;23.10;72.10;;;;;;4909712;28;93243;-10
2021/07/15 10:25:11;;;;;;;13.10;7.00;;;23.00;72.10;;;;;;4909146;28;93138;-17
2021/07/15 10:27:40;;;;;;;18.73;7.88;;;23.00;72.10;;;;;;4909447;28;93567;-12
2021/07/15 10:30:09;;;;;;;15.77;7.30;;;23.00;72.20;;;;;;4908338;28;95641;-12
2021/07/15 10:32:37;;;;;;;15.45;7.30;;;23.00;72.10;;;;;;4909466;28;95033;-16
2021/07/15 10:35:08;;;;;;;15.88;7.47;;;23.00;72.20;;;;;;4909878;28;93366;-14
2021/07/15 10:37:47;;;;;;;16.45;7.30;;;23.00;72.20;;;;;;4907207;28;92156;-13
2021/07/15 10:40:18;;;;;;;17.52;6.88;;;23.00;72.20;;;;;;4909096;28;93291;-15
2021/07/15 10:42:44;;;;;;;14.07;7.43;;;23.00;72.20;;;;;;4909222;28;93291;-15
2021/07/15 10:45:11;;;;;;;15.00;7.45;;;23.00;72.10;;;;;;4907955;28;92787;-11
2021/07/15 10:47:38;;;;;;;13.27;6.97;;;23.00;72.20;;;;;;4910312;28;91598;-11
2021/07/15 10:50:06;;;;;;;17.17;7.53;;;23.00;72.20;;;;;;4909227;28;93077;-12
2021/07/15 10:52:34;;;;;;;14.05;7.03;;;23.00;72.10;;;;;;4906728;28;95452;-10
2021/07/15 10:55:00;;;;;;;14.40;7.20;;;23.00;72.10;;;;;;4907639;28;93375;-11
2021/07/15 10:57:26;;;;;;;12.27;6.82;;;23.00;72.10;;;;;;4909252;28;92721;-17
2021/07/15 10:59:52;;;;;;;11.55;6.68;;;23.00;72.10;;;;;;4909057;28;93203;-12
2021/07/15 11:02:27;;;;;;;12.00;6.75;;;23.10;72.00;;;;;;4911434;28;93778;-11
2021/07/15 11:04:54;;;;;;;12.48;7.03;;;23.10;71.90;;;;;;4912321;28;92377;-19
2021/07/15 11:07:34;;;;;;;12.93;6.95;;;23.10;72.00;;;;;;4912865;28;92569;-10
2021/07/15 11:10:16;;;;;;;9.98;5.78;;;23.10;72.00;;;;;;4912974;28;92879;-15
2021/07/15 11:13:04;;;;;;;14.38;6.70;;;23.00;72.00;;;;;;4912579;28;92959;-16
2021/07/15 11:15:55;;;;;;;12.80;6.88;;;23.00;72.00;;;;;;4912831;28;92668;-13
2021/07/15 11:21:26;;;;;;;12.70;6.72;;;23.00;72.00;;;;;;4911167;28;94114;-9
2021/07/15 11:23:52;;;;;;;12.93;7.25;;;23.00;72.10;;;;;;4911657;28;93950;-10
2021/07/15 11:26:30;;;;;;;13.43;6.85;;;23.00;72.10;;;;;;4926769;28;92467;-10
2021/07/15 11:28:56;;;;;;;12.50;7.38;;;23.10;72.10;;;;;;4911830;28;92911;-10
2021/07/15 11:31:40;;;;;;;14.20;6.65;;;23.00;72.10;;;;;;4909766;28;93423;-10
2021/07/15 11:34:06;;;;;;;12.05;6.68;;;23.00;72.10;;;;;;4911118;28;93003;-15
2021/07/15 11:36:32;;;;;;;11.15;6.28;;;23.00;72.10;;;;;;4911860;28;92612;-9
2021/07/15 11:39:03;;;;;;;10.63;6.50;;;23.00;72.10;;;;;;4913078;28;92601;-9
2021/07/15 11:42:16;;;;;;;15.63;6.57;;;23.00;72.10;;;;;;4912129;28;92894;-9
2021/07/15 11:45:11;;;;;;;9.70;5.90;;;23.00;72.10;;;;;;4893636;28;92986;-15
2021/07/15 11:47:51;;;;;;;11.57;6.53;;;23.00;72.10;;;;;;4902977;28;93579;-11
2021/07/15 11:50:38;;;;;;;11.50;6.78;;;23.00;72.10;;;;;;4912582;28;93445;-9
2021/07/15 11:53:17;;;;;;;9.27;6.10;;;23.00;72.10;;;;;;4911653;28;93308;-8
2021/07/15 11:55:47;;;;;;;12.20;6.50;;;23.00;72.10;;;;;;4911517;28;92339;-12
2021/07/15 11:58:49;;;;;;;9.70;6.03;;;23.00;72.10;;;;;;4912485;28;93115;-12
2021/07/15 12:01:22;;;;;;;10.52;6.20;;;23.00;72.00;;;;;;4911786;28;93177;-9
2021/07/15 12:04:02;;;;;;;11.05;6.50;;;23.00;72.00;;;;;;4912135;28;93331;-10
2021/07/15 12:06:30;;;;;;;11.05;6.55;;;23.00;71.90;;;;;;4912211;28;92923;-13
2021/07/15 12:09:09;;;;;;;9.30;5.80;;;23.00;72.00;;;;;;4895815;28;93215;-13
2021/07/15 12:11:40;;;;;;;10.48;6.10;;;23.00;71.90;;;;;;4892393;28;92453;-9
2021/07/15 12:14:07;;;;;;;9.98;5.97;;;23.00;72.00;;;;;;4890880;28;94230;-13
2021/07/15 12:16:36;;;;;;;10.52;6.30;;;23.00;72.00;;;;;;4892411;28;93784;-9
2021/07/15 12:19:08;;;;;;;11.88;6.00;;;23.00;72.00;;;;;;4892862;28;93459;-14
2021/07/15 12:21:34;;;;;;;11.75;6.70;;;23.00;72.00;;;;;;4892002;28;92889;-10
2021/07/15 12:24:13;;;;;;;9.95;6.47;;;23.00;72.00;;;;;;4891631;28;92781;-9
2021/07/15 12:26:39;;;;;;;11.43;6.45;;;23.00;72.00;;;;;;4891573;28;93028;-12
2021/07/15 12:29:08;;;;;;;9.15;6.03;;;23.00;72.10;;;;;;4892679;28;92250;-12
2021/07/15 12:31:34;;;;;;;9.75;6.32;;;23.10;72.20;;;;;;4892282;28;91782;-10
2021/07/15 12:34:08;;;;;;;12.30;5.88;;;23.00;72.10;;;;;;4890881;28;93202;-10
2021/07/15 12:36:35;;;;;;;12.57;6.90;;;23.00;72.10;;;;;;4891218;28;93625;-9
2021/07/15 12:39:04;;;;;;;10.65;6.30;;;23.00;72.10;;;;;;4889737;28;93879;-9
2021/07/15 12:41:32;;;;;;;10.48;5.95;;;23.00;72.10;;;;;;4891391;28;92586;-13
2021/07/15 12:44:00;;;;;;;10.27;6.07;;;23.00;72.10;;;;;;4891240;28;93107;-17
2021/07/15 12:46:30;;;;;;;9.60;6.10;;;22.90;72.00;;;;;;4891840;28;92516;-11
2021/07/15 12:48:59;;;;;;;11.52;6.15;;;23.00;72.00;;;;;;4893009;28;92179;-11
2021/07/15 12:51:28;;;;;;;8.85;6.10;;;23.00;72.10;;;;;;4892174;28;92417;-12
2021/07/15 12:53:54;;;;;;;8.32;6.13;;;23.00;72.00;;;;;;4924862;28;96018;-16
2021/07/15 12:56:27;;;;;;;12.32;6.30;;;23.00;72.00;;;;;;4910293;28;92403;-17